Time;durP1;ratioP1;P1;durP2;ratioP2;P2;SDS_P1;SDS_P2;PMS_P1;PMS_P2;Temp;Humidity;BMP_temperature;BMP_pressure;BME280_temperature;BME280_humidity;BME280_pressure;Samples;Min_cycle;Max_cycle;Signal;HPM_P1;HPM_P2
2022/07/31 00:01:33;;;;;;;7.43;4.33;;;21.70;99.90;;;;;;5113893;28;20062;-74
2022/07/31 00:03:59;;;;;;;5.97;3.83;;;21.70;99.90;;;;;;5114244;28;20028;-73
2022/07/31 00:06:25;;;;;;;6.23;4.10;;;21.60;99.90;;;;;;5129614;27;20039;-74
2022/07/31 00:08:50;;;;;;;5.83;3.90;;;21.60;99.90;;;;;;5114187;28;20391;-73
2022/07/31 00:11:16;;;;;;;5.33;3.77;;;21.60;99.90;;;;;;5113795;28;20039;-74
2022/07/31 00:13:42;;;;;;;5.43;3.53;;;21.60;99.90;;;;;;5114075;28;20391;-74
2022/07/31 00:16:07;;;;;;;5.33;3.40;;;21.60;99.90;;;;;;5113597;28;20489;-74
2022/07/31 00:18:34;;;;;;;5.63;3.83;;;21.70;99.90;;;;;;5129398;27;20035;-74
2022/07/31 00:21:01;;;;;;;8.73;3.90;;;21.70;99.90;;;;;;5129481;27;20472;-74
2022/07/31 00:23:30;;;;;;;7.47;3.55;;;21.60;99.90;;;;;;5113962;28;20485;-74
2022/07/31 00:25:55;;;;;;;8.32;3.78;;;21.50;99.90;;;;;;5113527;28;20095;-74
2022/07/31 00:28:21;;;;;;;5.87;3.60;;;21.50;99.90;;;;;;5113738;28;20119;-75
2022/07/31 00:30:47;;;;;;;6.97;4.00;;;21.50;99.90;;;;;;5113783;28;20425;-75
2022/07/31 00:33:12;;;;;;;6.83;4.63;;;21.50;99.90;;;;;;5113634;28;20031;-74
2022/07/31 00:35:38;;;;;;;8.40;4.50;;;21.50;99.90;;;;;;5113421;28;20389;-74
2022/07/31 00:38:04;;;;;;;6.60;4.13;;;21.50;99.90;;;;;;5129083;27;20023;-73
2022/07/31 00:40:30;;;;;;;8.53;4.30;;;21.50;99.90;;;;;;5113295;28;20055;-74
2022/07/31 00:42:55;;;;;;;8.13;3.90;;;21.40;99.90;;;;;;5128872;27;20019;-73
2022/07/31 00:45:21;;;;;;;6.10;3.90;;;21.50;99.90;;;;;;5111680;28;20028;-74
2022/07/31 00:47:47;;;;;;;6.30;3.70;;;21.50;99.90;;;;;;5113130;28;20020;-74
2022/07/31 00:50:12;;;;;;;5.77;3.83;;;21.50;99.90;;;;;;5128769;27;20024;-74
2022/07/31 00:52:38;;;;;;;7.47;3.87;;;21.50;99.90;;;;;;5128755;27;20118;-75
2022/07/31 00:55:04;;;;;;;4.97;3.80;;;21.40;99.90;;;;;;5112890;28;20044;-73
2022/07/31 00:57:30;;;;;;;7.15;3.17;;;21.50;99.90;;;;;;5112916;28;20500;-74
2022/07/31 00:59:55;;;;;;;6.10;3.67;;;21.50;99.90;;;;;;5113015;28;20061;-73
2022/07/31 01:02:21;;;;;;;6.20;3.80;;;21.40;99.90;;;;;;5112802;28;20102;-74
2022/07/31 01:04:47;;;;;;;6.93;3.87;;;21.40;99.90;;;;;;5112946;28;20028;-74
2022/07/31 01:07:12;;;;;;;10.43;4.27;;;21.40;99.90;;;;;;5112930;28;20103;-73
2022/07/31 01:09:38;;;;;;;4.77;2.97;;;21.40;99.90;;;;;;5113489;28;20031;-73
2022/07/31 01:12:30;;;;;;;4.33;2.80;;;21.50;99.90;;;;;;5128123;27;20019;-74
2022/07/31 01:15:00;;;;;;;6.05;2.92;;;21.40;99.90;;;;;;5113437;28;20610;-74
2022/07/31 01:17:29;;;;;;;7.10;3.22;;;21.40;99.90;;;;;;5128500;27;20480;-73
2022/07/31 01:19:55;;;;;;;5.00;2.97;;;21.40;99.90;;;;;;5112625;28;20024;-74
2022/07/31 01:22:36;;;;;;;5.80;3.17;;;21.40;99.90;;;;;;5128272;27;20382;-74
2022/07/31 01:25:05;;;;;;;5.55;2.67;;;21.40;99.90;;;;;;5112760;28;20494;-74
2022/07/31 01:27:43;;;;;;;4.47;2.80;;;21.40;99.90;;;;;;5112339;28;20106;-74
2022/07/31 01:30:09;;;;;;;5.00;2.90;;;21.30;99.90;;;;;;5112324;28;20028;-74
2022/07/31 01:32:38;;;;;;;4.30;2.78;;;21.30;99.90;;;;;;5112213;28;20498;-74
2022/07/31 01:35:10;;;;;;;5.45;2.97;;;21.30;99.90;;;;;;5112060;28;20028;-74
2022/07/31 01:38:11;;;;;;;6.70;2.90;;;21.30;99.90;;;;;;5112142;28;20016;-74
2022/07/31 01:40:43;;;;;;;4.80;2.83;;;21.30;99.90;;;;;;5088808;27;20036;-74
2022/07/31 01:43:14;;;;;;;5.32;2.60;;;21.30;99.90;;;;;;5112335;28;20043;-74
2022/07/31 01:45:43;;;;;;;3.38;2.35;;;21.20;99.90;;;;;;5112172;28;20055;-74
2022/07/31 01:48:13;;;;;;;5.30;2.50;;;21.20;99.90;;;;;;5112478;28;20132;-74
2022/07/31 01:50:40;;;;;;;4.90;2.50;;;21.30;99.90;;;;;;5127984;27;20024;-74
2022/07/31 01:53:07;;;;;;;3.45;2.20;;;21.20;99.90;;;;;;5110392;28;20038;-74
2022/07/31 01:55:33;;;;;;;6.82;2.50;;;21.30;99.90;;;;;;5111904;28;20103;-74
2022/07/31 01:58:01;;;;;;;5.30;2.58;;;21.30;99.90;;;;;;5111738;28;20386;-74
2022/07/31 02:00:27;;;;;;;4.43;2.50;;;21.30;99.90;;;;;;5111830;28;20475;-74
2022/07/31 02:02:54;;;;;;;5.30;2.10;;;21.30;99.90;;;;;;5127347;27;20032;-74
2022/07/31 02:05:21;;;;;;;4.85;2.60;;;21.30;99.90;;;;;;5111607;28;20052;-74
2022/07/31 02:07:47;;;;;;;4.63;2.20;;;21.30;99.90;;;;;;5111576;28;20074;-74
2022/07/31 02:10:15;;;;;;;4.18;2.20;;;21.30;99.90;;;;;;5111445;28;20031;-74
2022/07/31 02:12:42;;;;;;;4.05;2.10;;;21.20;99.90;;;;;;5111382;27;20146;-74
2022/07/31 02:15:09;;;;;;;;;;;21.20;99.90;;;;;;5127736;27;20062;-74
2022/07/31 02:17:36;;;;;;;3.70;2.33;;;21.20;99.90;;;;;;5111212;28;19952;-74
2022/07/31 02:20:04;;;;;;;5.00;2.25;;;21.20;99.90;;;;;;5111340;28;20436;-74
2022/07/31 02:22:30;;;;;;;5.45;2.30;;;21.20;99.90;;;;;;5110477;28;20382;-74
2022/07/31 02:24:56;;;;;;;4.97;2.63;;;21.20;99.90;;;;;;5111257;28;20050;-74
2022/07/31 02:27:24;;;;;;;4.80;2.27;;;21.10;99.90;;;;;;5111210;28;20055;-74
2022/07/31 02:29:50;;;;;;;4.32;2.38;;;21.10;99.90;;;;;;5126993;27;20028;-73
2022/07/31 02:32:16;;;;;;;4.23;2.40;;;21.00;99.90;;;;;;5111145;28;20073;-74
2022/07/31 02:34:43;;;;;;;4.68;2.17;;;20.90;99.90;;;;;;5111670;28;20038;-74
2022/07/31 02:37:10;;;;;;;3.35;2.20;;;20.90;99.90;;;;;;5111059;28;20387;-73
2022/07/31 02:39:37;;;;;;;5.47;2.22;;;20.80;99.90;;;;;;5111688;28;20035;-74
2022/07/31 02:42:04;;;;;;;3.88;2.30;;;20.90;99.90;;;;;;5126660;27;20028;-74
2022/07/31 02:44:31;;;;;;;4.50;2.50;;;20.80;99.90;;;;;;5111338;28;20072;-74
2022/07/31 02:46:58;;;;;;;5.78;2.40;;;20.70;99.90;;;;;;5110852;28;20035;-73
2022/07/31 02:49:24;;;;;;;4.60;2.30;;;20.70;99.90;;;;;;5126716;27;20390;-74
2022/07/31 02:51:50;;;;;;;5.50;2.10;;;20.70;99.90;;;;;;5126463;27;20367;-74
2022/07/31 02:54:16;;;;;;;4.13;2.30;;;20.60;99.90;;;;;;5126349;27;20055;-74
2022/07/31 02:56:45;;;;;;;3.80;1.95;;;20.60;99.90;;;;;;5126408;27;20363;-73
2022/07/31 02:59:10;;;;;;;3.72;1.90;;;20.60;99.90;;;;;;5110940;28;20027;-74
2022/07/31 03:01:36;;;;;;;4.63;1.90;;;20.60;99.90;;;;;;5110677;28;20026;-74
2022/07/31 03:04:02;;;;;;;4.90;2.57;;;20.60;99.90;;;;;;5111234;28;20085;-74
2022/07/31 03:06:27;;;;;;;3.53;2.20;;;20.60;99.90;;;;;;5111056;28;20035;-74
2022/07/31 03:08:53;;;;;;;3.47;2.10;;;20.50;99.90;;;;;;5111248;28;20035;-73
2022/07/31 03:11:18;;;;;;;3.57;1.87;;;20.60;99.90;;;;;;5110764;28;20034;-73
2022/07/31 03:13:45;;;;;;;3.57;1.90;;;20.50;99.90;;;;;;5126369;28;20127;-74
2022/07/31 03:16:13;;;;;;;3.10;1.80;;;20.50;99.90;;;;;;5110493;28;20020;-74
2022/07/31 03:18:39;;;;;;;3.35;1.80;;;20.50;99.90;;;;;;5110680;28;20370;-74
2022/07/31 03:21:06;;;;;;;;;;;20.50;99.90;;;;;;5126656;28;20526;-74
2022/07/31 03:23:35;;;;;;;3.22;1.90;;;20.50;99.90;;;;;;5110762;28;19912;-73
2022/07/31 03:26:02;;;;;;;3.13;1.80;;;20.50;99.90;;;;;;5110633;28;20092;-74
2022/07/31 03:28:27;;;;;;;3.70;1.70;;;20.60;99.90;;;;;;5110625;28;20031;-74
2022/07/31 03:30:54;;;;;;;5.97;1.70;;;20.60;99.90;;;;;;5126254;28;20020;-73
2022/07/31 03:33:20;;;;;;;3.78;1.80;;;20.60;99.90;;;;;;5126223;28;20039;-74
2022/07/31 03:35:46;;;;;;;3.03;1.83;;;20.60;99.90;;;;;;5114575;28;20031;-74
2022/07/31 03:38:12;;;;;;;3.53;2.03;;;20.60;99.90;;;;;;5114396;28;20387;-74
2022/07/31 03:40:38;;;;;;;3.77;1.93;;;20.70;99.90;;;;;;5130090;27;20031;-74
2022/07/31 03:43:04;;;;;;;5.80;2.10;;;20.70;99.90;;;;;;5130018;27;20027;-74
2022/07/31 03:45:31;;;;;;;;;;;20.70;99.90;;;;;;5114726;28;20031;-74
2022/07/31 03:47:57;;;;;;;6.07;1.98;;;20.80;99.90;;;;;;5112796;28;20296;-75
2022/07/31 03:50:23;;;;;;;5.20;2.17;;;20.80;99.90;;;;;;5114644;28;20101;-73
2022/07/31 03:52:50;;;;;;;7.20;2.15;;;20.90;99.90;;;;;;5129943;27;20279;-74
2022/07/31 03:55:16;;;;;;;3.40;1.98;;;21.00;99.90;;;;;;5114022;28;20119;-73
2022/07/31 03:57:42;;;;;;;5.90;2.00;;;20.90;99.90;;;;;;5112672;28;20122;-74
2022/07/31 04:00:09;;;;;;;2.37;1.70;;;21.00;99.90;;;;;;5114321;28;20566;-74
2022/07/31 04:02:34;;;;;;;2.40;1.67;;;20.90;99.90;;;;;;5113899;28;20024;-73
2022/07/31 04:05:00;;;;;;;3.17;2.07;;;21.00;99.90;;;;;;5113999;28;20028;-74
2022/07/31 04:07:26;;;;;;;2.55;1.70;;;21.00;99.90;;;;;;5113748;28;20022;-74
2022/07/31 04:09:52;;;;;;;3.13;1.90;;;21.00;99.90;;;;;;5129494;27;20027;-74
2022/07/31 04:12:18;;;;;;;4.38;1.88;;;21.00;99.90;;;;;;5113890;28;20058;-74
2022/07/31 04:14:44;;;;;;;4.23;1.90;;;21.00;99.90;;;;;;5114222;28;20071;-74
2022/07/31 04:17:09;;;;;;;4.63;2.13;;;21.00;99.90;;;;;;5113728;28;20559;-74
2022/07/31 04:19:35;;;;;;;3.20;1.90;;;21.00;99.90;;;;;;5112512;28;20436;-74
2022/07/31 04:22:01;;;;;;;5.17;2.07;;;21.10;99.90;;;;;;5129432;27;20379;-74
2022/07/31 04:24:27;;;;;;;3.67;1.88;;;21.10;99.90;;;;;;5129629;27;20138;-74
2022/07/31 04:26:57;;;;;;;2.90;1.77;;;21.20;99.90;;;;;;5129668;27;20039;-73
2022/07/31 04:29:23;;;;;;;3.75;1.85;;;21.20;99.90;;;;;;5129607;27;20031;-74
2022/07/31 04:31:49;;;;;;;3.00;2.03;;;21.30;99.90;;;;;;5113678;28;20032;-74
2022/07/31 04:34:14;;;;;;;3.60;2.07;;;21.30;99.90;;;;;;5113988;28;20036;-74
2022/07/31 04:36:40;;;;;;;5.70;2.10;;;21.40;99.90;;;;;;5129114;27;20130;-74
2022/07/31 04:39:06;;;;;;;4.13;1.90;;;21.50;99.90;;;;;;5113761;28;20042;-74
2022/07/31 04:41:31;;;;;;;3.93;2.07;;;21.50;99.90;;;;;;5129053;27;20055;-74
2022/07/31 04:43:58;;;;;;;5.40;1.87;;;21.60;99.90;;;;;;5129121;27;20458;-74
2022/07/31 04:46:24;;;;;;;3.70;2.05;;;21.70;99.90;;;;;;5112229;28;20081;-74
2022/07/31 04:48:50;;;;;;;4.70;2.00;;;21.70;99.90;;;;;;5113470;28;20490;-73
2022/07/31 04:51:18;;;;;;;3.63;2.00;;;21.70;99.90;;;;;;5128794;27;20027;-74
2022/07/31 04:53:49;;;;;;;5.35;2.20;;;21.60;99.90;;;;;;5112844;28;20744;-74
2022/07/31 04:59:02;;;;;;;2.53;1.83;;;21.70;99.90;;;;;;5113086;28;20042;-74
2022/07/31 05:01:28;;;;;;;4.05;2.20;;;21.60;99.90;;;;;;5128518;27;20019;-74
2022/07/31 05:03:53;;;;;;;3.13;1.83;;;21.70;99.90;;;;;;5113157;28;20420;-75
2022/07/31 05:06:19;;;;;;;4.13;2.17;;;21.70;99.90;;;;;;5112674;28;20034;-73
2022/07/31 05:08:45;;;;;;;3.57;1.90;;;21.80;99.90;;;;;;5112938;28;20032;-73
2022/07/31 05:11:23;;;;;;;3.90;2.03;;;21.90;99.90;;;;;;5112783;28;20118;-73
2022/07/31 05:13:53;;;;;;;3.10;1.70;;;21.90;99.90;;;;;;5113038;28;20045;-74
2022/07/31 05:16:20;;;;;;;4.60;2.10;;;22.00;99.90;;;;;;5112764;28;20055;-74
2022/07/31 05:18:46;;;;;;;5.75;2.10;;;22.00;99.90;;;;;;5112991;27;20070;-74
2022/07/31 05:21:13;;;;;;;2.90;2.08;;;22.10;99.90;;;;;;5113051;28;20027;-74
2022/07/31 05:23:43;;;;;;;4.35;2.22;;;22.10;99.90;;;;;;5112781;28;20100;-75
2022/07/31 05:26:09;;;;;;;3.97;2.10;;;22.10;99.90;;;;;;5128252;27;20114;-74
2022/07/31 05:28:36;;;;;;;;;;;22.20;99.90;;;;;;5113075;28;20034;-74
2022/07/31 05:31:02;;;;;;;4.05;2.00;;;22.20;99.90;;;;;;5111041;28;19907;-74
2022/07/31 05:33:28;;;;;;;3.50;2.17;;;22.20;99.90;;;;;;5128160;27;20523;-74
2022/07/31 05:35:55;;;;;;;3.60;2.03;;;22.20;99.90;;;;;;5112279;28;20156;-74
2022/07/31 05:38:21;;;;;;;2.85;1.88;;;22.30;99.90;;;;;;5112402;28;20475;-73
2022/07/31 05:40:46;;;;;;;3.53;2.33;;;22.30;99.90;;;;;;5112004;28;20019;-74
2022/07/31 05:43:12;;;;;;;3.47;1.90;;;22.40;99.90;;;;;;5112123;28;20040;-73
2022/07/31 05:45:38;;;;;;;3.40;2.07;;;22.50;99.90;;;;;;5127732;27;20502;-73
2022/07/31 05:48:04;;;;;;;4.50;2.30;;;22.50;99.90;;;;;;5127533;27;20088;-73
2022/07/31 05:50:29;;;;;;;3.25;2.03;;;22.60;99.90;;;;;;5111951;28;20050;-73
2022/07/31 05:52:55;;;;;;;4.03;2.50;;;22.60;99.90;;;;;;5111793;28;20110;-74
2022/07/31 05:55:21;;;;;;;3.40;2.00;;;22.70;99.90;;;;;;5111814;28;20071;-74
2022/07/31 05:57:47;;;;;;;2.80;1.80;;;22.70;99.90;;;;;;5127233;27;20499;-74
2022/07/31 06:00:15;;;;;;;4.93;2.05;;;22.70;99.90;;;;;;5111658;28;20039;-74
2022/07/31 06:02:41;;;;;;;5.03;2.22;;;22.70;99.90;;;;;;5127283;27;20112;-74
2022/07/31 06:05:07;;;;;;;5.03;1.98;;;22.70;99.90;;;;;;5111491;27;20023;-74
2022/07/31 06:07:32;;;;;;;5.00;2.22;;;22.80;99.90;;;;;;5111484;28;20088;-75
2022/07/31 06:09:58;;;;;;;4.97;2.10;;;22.90;99.90;;;;;;5111401;28;20447;-74
2022/07/31 06:12:23;;;;;;;3.60;2.20;;;22.90;99.90;;;;;;5111343;28;20394;-74
2022/07/31 06:14:49;;;;;;;4.33;2.10;;;22.90;99.90;;;;;;5111419;28;20077;-75
2022/07/31 06:17:15;;;;;;;3.33;2.00;;;22.90;99.90;;;;;;5111233;28;20028;-75
2022/07/31 06:19:40;;;;;;;3.77;2.20;;;23.10;99.90;;;;;;5127006;27;20438;-75
2022/07/31 06:22:06;;;;;;;5.63;2.80;;;23.20;99.90;;;;;;5111322;28;20123;-75
2022/07/31 06:24:32;;;;;;;2.83;2.30;;;23.30;99.90;;;;;;5111572;28;20084;-75
2022/07/31 06:26:59;;;;;;;4.87;2.40;;;23.30;99.90;;;;;;5111170;28;20353;-73
2022/07/31 06:29:24;;;;;;;5.47;2.00;;;23.30;99.90;;;;;;5111483;28;20489;-74
2022/07/31 06:31:50;;;;;;;6.37;2.07;;;23.30;99.90;;;;;;5111364;28;20023;-74
2022/07/31 06:34:16;;;;;;;3.80;2.23;;;23.40;99.90;;;;;;5111524;28;20031;-74
2022/07/31 06:36:41;;;;;;;5.83;2.57;;;23.50;99.90;;;;;;5111181;28;20027;-74
2022/07/31 06:39:07;;;;;;;7.53;2.13;;;23.50;99.90;;;;;;5111218;28;20039;-73
2022/07/31 06:41:47;;;;;;;4.33;2.60;;;23.60;99.90;;;;;;5110952;28;20467;-75
2022/07/31 06:44:20;;;;;;;4.65;2.10;;;23.60;99.90;;;;;;5126640;27;20069;-74
2022/07/31 06:46:46;;;;;;;3.67;2.03;;;23.70;99.90;;;;;;5126615;27;20035;-74
2022/07/31 06:49:12;;;;;;;6.30;2.77;;;23.80;99.90;;;;;;5111153;28;20035;-75
2022/07/31 06:51:38;;;;;;;3.42;2.42;;;24.00;99.90;;;;;;5110671;28;20081;-74
2022/07/31 06:54:07;;;;;;;4.10;2.50;;;24.00;99.90;;;;;;5110764;28;20086;-74
2022/07/31 06:56:34;;;;;;;6.97;2.25;;;24.10;99.90;;;;;;5110576;28;20069;-74
2022/07/31 06:59:01;;;;;;;3.38;2.17;;;24.10;99.90;;;;;;5126421;27;20039;-74
2022/07/31 07:01:27;;;;;;;4.40;2.40;;;24.20;99.90;;;;;;5126284;27;20114;-73
2022/07/31 07:03:53;;;;;;;3.78;1.65;;;24.30;99.90;;;;;;5110865;28;20032;-75
2022/07/31 07:06:19;;;;;;;2.80;1.83;;;24.40;99.90;;;;;;5110625;28;20080;-74
2022/07/31 07:08:45;;;;;;;4.40;1.90;;;24.50;99.90;;;;;;5125970;27;20031;-74
2022/07/31 07:11:10;;;;;;;2.93;1.87;;;24.60;99.90;;;;;;5110509;28;20048;-74
2022/07/31 07:13:36;;;;;;;3.47;2.13;;;24.70;99.90;;;;;;5110750;28;20299;-74
2022/07/31 07:16:02;;;;;;;5.23;2.00;;;24.60;99.90;;;;;;5126094;28;20040;-74
2022/07/31 07:18:28;;;;;;;4.75;2.28;;;24.60;99.90;;;;;;5110687;28;20490;-74
2022/07/31 07:20:53;;;;;;;4.57;2.20;;;24.70;99.90;;;;;;5110445;28;20031;-74
2022/07/31 07:23:20;;;;;;;2.43;1.87;;;24.90;99.90;;;;;;5110453;28;20027;-74
2022/07/31 07:25:46;;;;;;;3.15;2.10;;;25.10;99.90;;;;;;5110926;28;20479;-75
2022/07/31 07:28:12;;;;;;;3.13;1.93;;;25.20;99.90;;;;;;5110449;28;20027;-75
2022/07/31 07:30:38;;;;;;;4.40;1.98;;;25.20;99.70;;;;;;5110450;28;20031;-74
2022/07/31 07:33:04;;;;;;;3.15;1.92;;;25.30;99.50;;;;;;5110263;28;20111;-75
2022/07/31 07:35:30;;;;;;;5.15;1.98;;;25.30;99.70;;;;;;5110363;28;20036;-75
2022/07/31 07:37:57;;;;;;;3.30;1.83;;;25.40;99.30;;;;;;5110323;28;20088;-75
2022/07/31 07:40:23;;;;;;;3.42;1.80;;;25.40;99.30;;;;;;5110422;28;20477;-74
2022/07/31 07:42:49;;;;;;;3.33;1.95;;;25.40;99.10;;;;;;5125977;28;20072;-75
2022/07/31 07:45:15;;;;;;;4.07;2.20;;;25.30;99.80;;;;;;5110201;28;20391;-75
2022/07/31 07:47:40;;;;;;;5.17;1.93;;;25.50;99.80;;;;;;5110016;28;20479;-74
2022/07/31 07:50:08;;;;;;;2.73;1.83;;;25.50;99.30;;;;;;5110100;28;20059;-74
2022/07/31 07:52:35;;;;;;;4.43;2.00;;;25.60;98.60;;;;;;5110030;28;20031;-75
2022/07/31 07:55:00;;;;;;;;;;;25.60;99.00;;;;;;5110224;28;20110;-74
2022/07/31 07:57:26;;;;;;;3.05;1.80;;;25.60;99.30;;;;;;5108493;28;20391;-74
2022/07/31 07:59:52;;;;;;;4.13;2.07;;;25.80;99.00;;;;;;5109942;28;20382;-74
2022/07/31 08:02:17;;;;;;;3.17;1.92;;;25.90;97.70;;;;;;5109840;28;20252;-74
2022/07/31 08:04:43;;;;;;;3.43;2.13;;;26.00;97.90;;;;;;5110109;28;20486;-75
2022/07/31 08:07:09;;;;;;;2.67;1.87;;;26.10;98.60;;;;;;5109776;28;20023;-75
2022/07/31 08:09:35;;;;;;;3.57;1.93;;;26.20;98.40;;;;;;5110471;28;20118;-74
2022/07/31 08:12:01;;;;;;;3.15;2.03;;;26.30;97.60;;;;;;5125621;28;20343;-75
2022/07/31 08:14:27;;;;;;;2.60;1.92;;;26.40;97.90;;;;;;5110280;28;20043;-75
2022/07/31 08:16:54;;;;;;;2.43;1.70;;;26.60;97.60;;;;;;5125570;28;20024;-75
2022/07/31 08:19:19;;;;;;;6.47;2.20;;;26.70;96.20;;;;;;5110304;28;20481;-75
2022/07/31 08:21:45;;;;;;;3.70;1.90;;;26.70;95.70;;;;;;5112213;28;20020;-75
2022/07/31 08:24:11;;;;;;;4.03;2.00;;;26.80;95.80;;;;;;5129347;27;20127;-75
2022/07/31 08:29:21;;;;;;;2.35;1.60;;;27.00;95.80;;;;;;5113921;28;20120;-74
2022/07/31 08:31:47;;;;;;;2.75;1.80;;;27.20;96.20;;;;;;5129102;27;20051;-75
2022/07/31 08:34:13;;;;;;;3.50;2.10;;;27.40;95.90;;;;;;5113784;28;20073;-75
2022/07/31 08:36:38;;;;;;;2.60;1.60;;;27.60;94.90;;;;;;5128956;27;20024;-75
2022/07/31 08:39:04;;;;;;;3.53;2.13;;;27.60;94.70;;;;;;5113444;28;20028;-74
2022/07/31 08:41:31;;;;;;;3.30;1.70;;;27.50;95.10;;;;;;5129154;27;20109;-74
2022/07/31 08:44:00;;;;;;;6.75;1.80;;;27.60;93.30;;;;;;5128908;27;20059;-74
2022/07/31 08:46:26;;;;;;;4.75;1.80;;;27.70;93.60;;;;;;5112966;28;20032;-74
2022/07/31 08:48:55;;;;;;;3.60;1.73;;;27.80;93.10;;;;;;5113179;28;20046;-74
2022/07/31 08:51:22;;;;;;;4.25;1.92;;;27.70;93.30;;;;;;5112918;28;20484;-74
2022/07/31 08:53:50;;;;;;;4.38;1.85;;;27.80;93.10;;;;;;5112549;28;20059;-74
2022/07/31 08:56:16;;;;;;;3.60;1.73;;;28.00;91.30;;;;;;5128441;27;20023;-73
2022/07/31 08:58:42;;;;;;;;;;;27.90;91.40;;;;;;5128971;27;20091;-74
2022/07/31 09:01:10;;;;;;;3.78;1.70;;;27.90;91.70;;;;;;5112827;28;20317;-74
2022/07/31 09:03:37;;;;;;;2.72;1.77;;;28.30;91.00;;;;;;5112926;28;20031;-74
2022/07/31 09:06:04;;;;;;;2.08;1.52;;;28.60;89.80;;;;;;5112516;28;20118;-74
2022/07/31 09:08:34;;;;;;;5.80;1.60;;;28.30;90.10;;;;;;5112640;28;20191;-74
2022/07/31 09:11:11;;;;;;;5.18;1.88;;;28.30;87.40;;;;;;5112764;28;20388;-74
2022/07/31 09:13:37;;;;;;;2.78;1.50;;;28.40;85.90;;;;;;5112813;27;20039;-74
2022/07/31 09:16:03;;;;;;;5.40;1.80;;;28.30;84.80;;;;;;5112279;28;20072;-75
2022/07/31 09:18:29;;;;;;;2.75;1.50;;;28.30;86.60;;;;;;5112538;28;20809;-74
2022/07/31 09:21:00;;;;;;;3.55;1.80;;;28.40;87.40;;;;;;5112256;28;20092;-74
2022/07/31 09:23:27;;;;;;;3.08;1.73;;;28.60;85.90;;;;;;5127928;27;20391;-74
2022/07/31 09:25:57;;;;;;;3.72;1.80;;;29.00;82.70;;;;;;5112211;28;20027;-74
2022/07/31 09:28:43;;;;;;;2.08;1.50;;;29.00;82.00;;;;;;5111990;27;20054;-74
2022/07/31 09:31:10;;;;;;;5.65;1.92;;;28.90;79.70;;;;;;5111944;28;20536;-74
2022/07/31 09:33:39;;;;;;;5.10;1.60;;;28.90;80.10;;;;;;5112008;28;20348;-74
2022/07/31 09:36:05;;;;;;;3.28;1.42;;;29.20;80.50;;;;;;5111923;28;20098;-75
2022/07/31 09:38:38;;;;;;;2.28;1.50;;;29.40;78.70;;;;;;5127346;27;20115;-74
2022/07/31 09:41:18;;;;;;;2.50;1.65;;;29.40;77.70;;;;;;5111801;28;20024;-74
2022/07/31 09:43:54;;;;;;;6.32;1.70;;;29.40;77.70;;;;;;5111635;28;20118;-74
2022/07/31 09:46:20;;;;;;;2.75;1.40;;;29.20;77.10;;;;;;5127612;27;20016;-74
2022/07/31 09:48:51;;;;;;;6.13;1.55;;;29.00;77.30;;;;;;5111993;28;20416;-74
2022/07/31 09:51:16;;;;;;;3.78;1.50;;;29.20;77.40;;;;;;5111935;28;20111;-74
2022/07/31 09:53:55;;;;;;;2.45;1.50;;;29.20;75.80;;;;;;5127188;27;20487;-74
2022/07/31 09:56:31;;;;;;;2.92;1.60;;;29.20;75.60;;;;;;5111559;28;20059;-75
2022/07/31 09:58:57;;;;;;;3.88;1.80;;;29.10;75.40;;;;;;5111827;28;20035;-74
2022/07/31 10:01:24;;;;;;;3.10;1.65;;;29.10;75.10;;;;;;5127328;27;20046;-74
2022/07/31 10:03:51;;;;;;;4.32;1.77;;;28.90;74.70;;;;;;5111784;28;20038;-75
2022/07/31 10:06:19;;;;;;;4.18;2.03;;;29.00;75.80;;;;;;5111441;28;20501;-74
2022/07/31 10:08:46;;;;;;;4.20;1.58;;;29.10;74.80;;;;;;5111270;28;20023;-75
2022/07/31 10:11:18;;;;;;;3.40;1.73;;;29.20;74.60;;;;;;5127395;27;20523;-74
2022/07/31 10:13:47;;;;;;;3.97;1.58;;;29.20;74.80;;;;;;5111577;28;20069;-75
2022/07/31 10:16:13;;;;;;;4.95;1.77;;;29.30;75.10;;;;;;5111524;28;20031;-73
2022/07/31 10:18:44;;;;;;;2.55;1.70;;;29.40;74.80;;;;;;5127160;27;20445;-75
2022/07/31 10:21:10;;;;;;;3.45;1.75;;;29.40;74.80;;;;;;5127172;27;20023;-75
2022/07/31 10:23:40;;;;;;;2.97;1.63;;;29.50;73.80;;;;;;5111508;28;20051;-75
2022/07/31 10:26:06;;;;;;;2.63;1.60;;;29.70;73.00;;;;;;5111933;28;20024;-75
2022/07/31 10:28:35;;;;;;;2.97;1.63;;;29.80;72.10;;;;;;5126944;27;20042;-75
2022/07/31 10:31:01;;;;;;;4.32;1.70;;;29.90;72.30;;;;;;5111525;28;20035;-75
2022/07/31 10:33:27;;;;;;;4.13;1.77;;;30.00;72.10;;;;;;5111127;28;20375;-75
2022/07/31 10:36:13;;;;;;;3.47;2.08;;;30.30;71.30;;;;;;5111197;28;20031;-75
2022/07/31 10:38:42;;;;;;;3.55;1.70;;;30.40;71.50;;;;;;5111085;28;20077;-75
2022/07/31 10:41:10;;;;;;;5.13;1.80;;;30.20;71.50;;;;;;5110919;28;20028;-74
2022/07/31 10:43:44;;;;;;;2.65;1.50;;;30.40;71.90;;;;;;5110295;28;20419;-75
2022/07/31 10:46:10;;;;;;;4.03;1.90;;;30.10;72.50;;;;;;5126753;27;20028;-74
2022/07/31 10:48:36;;;;;;;3.38;2.00;;;30.40;72.10;;;;;;5110775;28;20119;-74
2022/07/31 10:51:08;;;;;;;4.28;1.83;;;30.50;72.20;;;;;;5126826;27;20135;-75
2022/07/31 10:53:34;;;;;;;5.05;2.15;;;30.40;72.80;;;;;;5110796;28;20521;-75
2022/07/31 10:56:02;;;;;;;2.65;1.83;;;30.10;73.40;;;;;;5111317;28;20020;-74
2022/07/31 10:58:29;;;;;;;3.30;1.98;;;30.00;73.50;;;;;;5126425;27;20035;-75
2022/07/31 11:01:10;;;;;;;5.10;1.80;;;30.20;73.90;;;;;;5126406;27;20027;-75
2022/07/31 11:03:43;;;;;;;4.65;2.08;;;30.60;73.20;;;;;;5110443;28;20035;-75
2022/07/31 11:06:09;;;;;;;4.88;2.13;;;30.80;73.50;;;;;;5110554;28;20073;-75
2022/07/31 11:08:43;;;;;;;4.03;2.10;;;30.70;74.20;;;;;;5110685;28;20040;-75
2022/07/31 11:11:10;;;;;;;4.60;2.10;;;31.00;72.60;;;;;;5109177;28;20054;-74
2022/07/31 11:13:46;;;;;;;4.47;2.00;;;31.00;72.60;;;;;;5126320;28;20032;-74
2022/07/31 11:16:11;;;;;;;4.38;2.10;;;30.90;72.30;;;;;;5110461;28;20035;-74
2022/07/31 11:18:37;;;;;;;5.80;2.25;;;31.00;72.70;;;;;;5126329;28;20031;-74
2022/07/31 11:21:05;;;;;;;4.20;2.08;;;31.00;73.30;;;;;;5126276;28;20127;-74
2022/07/31 11:23:32;;;;;;;4.55;2.10;;;31.20;73.50;;;;;;5110460;28;20076;-74
2022/07/31 11:26:00;;;;;;;4.30;2.40;;;31.20;73.10;;;;;;5125832;28;20104;-74
2022/07/31 11:28:26;;;;;;;5.10;1.95;;;31.00;72.90;;;;;;5110407;28;20024;-74
2022/07/31 11:31:04;;;;;;;3.45;1.98;;;30.80;72.80;;;;;;5110436;28;20156;-75
2022/07/31 11:33:44;;;;;;;4.82;2.15;;;30.60;73.00;;;;;;5110056;28;20471;-75
2022/07/31 11:36:16;;;;;;;4.03;2.00;;;30.50;73.80;;;;;;5110263;28;20067;-75
2022/07/31 11:38:54;;;;;;;3.03;2.10;;;30.40;73.90;;;;;;5110597;28;20043;-75
2022/07/31 11:41:25;;;;;;;4.55;2.00;;;30.60;74.20;;;;;;5126190;28;20062;-75
2022/07/31 11:43:51;;;;;;;4.30;1.90;;;30.70;74.00;;;;;;5125983;28;20035;-75
2022/07/31 11:46:32;;;;;;;2.75;2.20;;;30.50;74.10;;;;;;5110690;28;20359;-75
2022/07/31 11:48:58;;;;;;;4.10;2.50;;;30.20;75.10;;;;;;5110038;28;20080;-75
2022/07/31 11:51:26;;;;;;;2.72;1.80;;;30.10;75.50;;;;;;5126052;28;20027;-75
2022/07/31 11:53:53;;;;;;;7.78;2.00;;;30.10;74.80;;;;;;5109929;28;20055;-74
2022/07/31 11:56:19;;;;;;;4.85;2.10;;;30.10;74.80;;;;;;5113401;28;20088;-76
2022/07/31 11:58:56;;;;;;;3.28;2.10;;;30.20;74.70;;;;;;5113852;28;20031;-75
2022/07/31 12:01:27;;;;;;;3.72;2.25;;;30.40;75.10;;;;;;5113824;27;20031;-75
2022/07/31 12:03:54;;;;;;;3.88;1.80;;;30.30;75.10;;;;;;5129560;27;20036;-75
2022/07/31 12:06:20;;;;;;;3.45;2.15;;;30.30;75.10;;;;;;5130855;27;20382;-76
2022/07/31 12:08:47;;;;;;;2.83;2.00;;;30.30;75.50;;;;;;5130154;27;20035;-76
2022/07/31 12:11:15;;;;;;;3.88;2.10;;;30.50;75.30;;;;;;5113667;28;20028;-75
2022/07/31 12:13:47;;;;;;;2.85;1.88;;;30.40;74.70;;;;;;5114014;28;20031;-76
2022/07/31 12:16:14;;;;;;;4.90;2.33;;;30.20;74.40;;;;;;5114121;28;20467;-75
2022/07/31 12:18:59;;;;;;;;;;;30.10;74.40;;;;;;5113796;28;20038;-76
2022/07/31 12:21:38;;;;;;;3.00;1.88;;;29.90;74.70;;;;;;5113641;28;20278;-75
2022/07/31 12:24:12;;;;;;;5.00;1.98;;;29.80;75.30;;;;;;5129638;27;20032;-76
2022/07/31 12:26:41;;;;;;;4.15;2.05;;;30.00;75.50;;;;;;5129443;27;20027;-75
2022/07/31 12:29:09;;;;;;;5.38;2.38;;;30.10;74.80;;;;;;5113934;28;20028;-75
2022/07/31 12:31:50;;;;;;;8.60;2.40;;;30.00;74.90;;;;;;5113389;28;20387;-75
2022/07/31 12:34:39;;;;;;;4.00;2.05;;;29.90;75.30;;;;;;5129579;27;20054;-76
2022/07/31 12:37:10;;;;;;;4.00;1.90;;;29.70;76.00;;;;;;5129254;27;20112;-76
2022/07/31 12:39:49;;;;;;;2.90;2.00;;;29.80;76.50;;;;;;5114046;28;20169;-76
2022/07/31 12:42:31;;;;;;;3.63;2.40;;;29.80;76.40;;;;;;5129301;27;20028;-75
2022/07/31 12:45:00;;;;;;;2.83;1.95;;;29.80;76.40;;;;;;5113177;28;20035;-76
2022/07/31 12:47:29;;;;;;;4.38;2.03;;;29.80;76.80;;;;;;5113178;28;20016;-75
2022/07/31 12:49:55;;;;;;;5.22;2.15;;;29.80;76.30;;;;;;5113122;28;20023;-75
2022/07/31 12:52:22;;;;;;;4.45;2.33;;;29.80;76.20;;;;;;5128723;27;20035;-75
2022/07/31 12:54:48;;;;;;;4.25;2.40;;;29.40;76.70;;;;;;5112963;28;20055;-75
2022/07/31 12:57:14;;;;;;;5.53;2.92;;;29.30;77.50;;;;;;5128687;27;20497;-75